map of VRB home
VRB - Airport
Location
City:  Vero Beach, Florida, United States
Name:Vero Beach Municipal Airport
ICAO:KVRB
IATA:VRB
FAA LID:VRB

Details
Type:Airport (Part 139 Class I)
Use:Public/Civil
Latitude:2739'20"N (27.655556)
Longitude:8025'05"W (-80.417943)
Datum:WGS 1984
Elevation:23 ft (7 m)
Variation:6.80W (WMM2015 magnetic declination)
-0.09 annual change
Runways:3
Longest:7314 × 106 ft (2229 × 32.5 m), paved

Time
Time Zone:UTC-5 (DST-4)
Local Time:

Weather
METAR:KVRB 222253Z 12012KT 10SM FEW023 29/23 A3005 RMK AO2 SLP173 T02940233 $
TAF:KVRB 221736Z 2218/2318 13014G20KT P6SM FEW035 FEW250
FM230000 13009KT P6SM FEW030 FEW250
FM230600 13005KT P6SM SCT025
FM231500 12010KT P6SM SCT030

Related Locations
Nearby:
Farthest:USL: 11588 mi / 18649 km
Useless Loop, WA, AU

Find:

   beyond  
but within

Other Information
Maps:
NOTAMs:
Links:
Sources:

  
flag of United States
flag of Florida
  

Airport Diagram

Airport diagram for VRB

Airport diagram PDF

Sectional Chart

Flight Planning
at skyvector.com

Satellite Image

Google Maps Satellite view

 

Copyright © 2004-2017 Karl L. Swartz. All rights reserved.
The Great Circle Mapper name and logo are trademarks of the Great Circle Mapper.
All other trademarks mentioned herein belong to their respective owners.
Please see credits for attibutions and further copyright information.

  Follow gcmap on Facebook Follow gcmap on Twitter Follow gcmap on Google+ GCmap on LinkedIn

hCard Microformat

Geo Microformat